Time;durP1;ratioP1;P1;durP2;ratioP2;P2;SDS_P1;SDS_P2;PMS_P1;PMS_P2;Temp;Humidity;BMP_temperature;BMP_pressure;BME280_temperature;BME280_humidity;BME280_pressure;Samples;Min_cycle;Max_cycle;Signal;HPM_P1;HPM_P2
2022/06/06 04:42:08;;;;;;;1.80;1.70;;;37.50;45.50;;;;;;4597562;28;20057;-59
2022/06/06 04:44:49;;;;;;;2.10;1.90;;;37.80;45.50;;;;;;5034910;28;20040;-59
2022/06/06 04:47:17;;;;;;;2.25;2.05;;;38.10;45.20;;;;;;5022210;28;20022;-59
2022/06/06 04:49:45;;;;;;;1.95;1.85;;;38.20;44.50;;;;;;5034456;28;20107;-59
2022/06/06 04:52:12;;;;;;;2.67;2.13;;;38.40;44.10;;;;;;5033568;28;20101;-58
2022/06/06 04:54:41;;;;;;;2.15;1.80;;;38.60;43.60;;;;;;5031915;28;20013;-59
2022/06/06 04:57:08;;;;;;;2.60;2.40;;;38.70;43.20;;;;;;5020813;28;20489;-59
2022/06/06 04:59:35;;;;;;;1.92;1.83;;;38.80;42.80;;;;;;5026717;28;20021;-59
2022/06/06 05:02:05;;;;;;;1.80;1.70;;;39.00;42.60;;;;;;5031117;28;20079;-58
2022/06/06 05:04:31;;;;;;;1.77;1.67;;;39.00;42.30;;;;;;5023793;28;20084;-59
2022/06/06 05:07:06;;;;;;;1.88;1.77;;;39.10;42.00;;;;;;5023337;28;20166;-59
2022/06/06 05:09:45;;;;;;;1.80;1.70;;;39.10;41.50;;;;;;5022302;28;20030;-58
2022/06/06 05:12:14;;;;;;;1.80;1.70;;;39.10;41.70;;;;;;5026484;28;20144;-58
2022/06/06 05:14:52;;;;;;;1.55;1.45;;;39.20;41.50;;;;;;5026946;28;20026;-58
2022/06/06 05:17:29;;;;;;;1.90;1.80;;;39.10;41.00;;;;;;5021940;28;20033;-59
2022/06/06 05:20:04;;;;;;;1.83;1.73;;;39.10;40.20;;;;;;5026697;28;20017;-58
2022/06/06 05:23:01;;;;;;;2.40;2.20;;;38.80;39.70;;;;;;5024553;28;20041;-59
2022/06/06 05:25:51;;;;;;;2.75;2.10;;;38.20;39.40;;;;;;5027500;28;20018;-59
2022/06/06 05:28:22;;;;;;;2.38;2.17;;;37.10;40.00;;;;;;5028055;28;20576;-58
2022/06/06 05:31:07;;;;;;;2.13;2.03;;;36.00;40.60;;;;;;5026748;28;20029;-59
2022/06/06 05:33:53;;;;;;;2.35;2.15;;;34.80;41.20;;;;;;5023240;28;20022;-58
2022/06/06 05:36:40;;;;;;;2.53;2.33;;;33.70;42.10;;;;;;5015496;28;20102;-59
2022/06/06 05:39:13;;;;;;;4.85;2.08;;;32.60;43.10;;;;;;5024809;28;20021;-59
2022/06/06 05:41:39;;;;;;;2.47;2.28;;;31.60;44.00;;;;;;5018042;28;20042;-57
2022/06/06 05:44:49;;;;;;;2.85;2.60;;;30.80;44.60;;;;;;5024049;28;20030;-58
2022/06/06 05:47:50;;;;;;;3.10;2.78;;;30.10;45.40;;;;;;5021695;28;20045;-58
2022/06/06 05:50:36;;;;;;;2.63;2.42;;;29.40;46.40;;;;;;5021272;28;20061;-58
2022/06/06 05:53:28;;;;;;;2.60;2.40;;;28.90;47.00;;;;;;5014838;28;20515;-59
2022/06/06 05:56:12;;;;;;;2.42;2.33;;;28.40;47.70;;;;;;5017401;28;20029;-59
2022/06/06 05:58:49;;;;;;;2.60;2.40;;;28.10;48.10;;;;;;5022498;28;20045;-59
2022/06/06 06:01:44;;;;;;;2.38;2.25;;;27.70;48.60;;;;;;5018882;28;20096;-58
2022/06/06 06:04:31;;;;;;;2.88;2.67;;;27.40;49.20;;;;;;5022076;28;20033;-58
2022/06/06 06:07:18;;;;;;;2.42;2.22;;;27.20;49.50;;;;;;5028987;28;20030;-59
2022/06/06 06:10:16;;;;;;;2.50;2.30;;;27.00;49.70;;;;;;5032319;28;20037;-59
2022/06/06 06:13:00;;;;;;;2.50;2.30;;;26.80;49.90;;;;;;5021123;28;20469;-58
2022/06/06 06:15:33;;;;;;;2.40;2.20;;;26.70;49.90;;;;;;5026904;28;20599;-58
2022/06/06 06:18:01;;;;;;;2.50;2.30;;;26.60;50.00;;;;;;5031293;28;20029;-59
2022/06/06 06:20:33;;;;;;;2.40;2.20;;;26.40;50.00;;;;;;5022837;28;20104;-58
2022/06/06 06:23:04;;;;;;;2.03;1.92;;;26.30;50.10;;;;;;5023353;28;20186;-58
2022/06/06 06:25:33;;;;;;;2.60;2.40;;;26.20;50.20;;;;;;5026973;28;20028;-59
2022/06/06 06:28:10;;;;;;;2.80;2.60;;;26.20;50.40;;;;;;5026918;28;20080;-58
2022/06/06 06:30:55;;;;;;;2.70;2.40;;;26.00;51.10;;;;;;5021686;28;20026;-58
2022/06/06 06:33:49;;;;;;;2.20;2.10;;;26.00;50.50;;;;;;5030109;28;20115;-59
2022/06/06 06:36:34;;;;;;;2.22;2.03;;;25.90;50.60;;;;;;5017382;28;20037;-59
2022/06/06 06:39:25;;;;;;;2.13;2.03;;;25.90;50.90;;;;;;5009885;28;20772;-59
2022/06/06 06:42:26;;;;;;;1.92;1.83;;;25.80;51.00;;;;;;5016747;28;20051;-59
2022/06/06 06:45:01;;;;;;;2.50;2.05;;;25.70;51.10;;;;;;5016240;28;20040;-59
2022/06/06 06:47:30;;;;;;;2.17;1.98;;;25.70;51.10;;;;;;5019196;28;20100;-59
2022/06/06 06:50:17;;;;;;;2.33;2.17;;;25.70;51.40;;;;;;5018730;28;20121;-57
2022/06/06 06:52:56;;;;;;;2.40;2.20;;;25.60;51.60;;;;;;5022207;28;20779;-58
2022/06/06 06:55:32;;;;;;;2.83;2.53;;;25.60;51.80;;;;;;5014908;28;20025;-58
2022/06/06 06:58:00;;;;;;;2.13;2.03;;;25.60;51.90;;;;;;5020966;28;20037;-59
2022/06/06 07:00:28;;;;;;;3.03;2.20;;;25.50;51.90;;;;;;5015364;28;20175;-59
2022/06/06 07:09:49;;;;;;;2.15;1.88;;;25.60;51.30;;;;;;5015197;28;20444;-59
2022/06/06 07:12:27;;;;;;;2.30;2.10;;;25.60;51.10;;;;;;5021412;28;20424;-59
2022/06/06 07:15:08;;;;;;;1.80;1.70;;;25.60;50.90;;;;;;5016896;28;20112;-59
2022/06/06 07:17:41;;;;;;;2.58;2.00;;;25.70;50.70;;;;;;5003839;28;20096;-59
2022/06/06 07:20:10;;;;;;;1.85;1.75;;;25.70;50.40;;;;;;5011588;28;20033;-59
2022/06/06 07:22:59;;;;;;;1.92;1.83;;;25.70;50.00;;;;;;5009959;28;20108;-58
2022/06/06 07:25:26;;;;;;;2.28;2.03;;;25.80;49.90;;;;;;5006680;28;20465;-59
2022/06/06 07:27:52;;;;;;;1.85;1.75;;;25.80;49.80;;;;;;5013572;28;20159;-59
2022/06/06 07:30:21;;;;;;;1.77;1.67;;;25.80;49.50;;;;;;5006008;28;20059;-59
2022/06/06 07:32:56;;;;;;;1.70;1.60;;;25.80;49.50;;;;;;5007716;28;20033;-58
2022/06/06 07:35:47;;;;;;;2.03;1.88;;;25.80;49.40;;;;;;5011795;28;20115;-59
2022/06/06 07:38:21;;;;;;;1.33;1.30;;;25.80;49.40;;;;;;5011523;28;20025;-59
2022/06/06 07:41:06;;;;;;;1.70;1.60;;;25.70;49.20;;;;;;5017663;28;20504;-58
2022/06/06 07:43:35;;;;;;;1.83;1.73;;;25.80;49.00;;;;;;5021767;28;20033;-59
2022/06/06 07:46:45;;;;;;;1.67;1.58;;;25.70;48.60;;;;;;5010276;28;20052;-59
2022/06/06 07:49:19;;;;;;;1.50;1.40;;;25.70;48.00;;;;;;5029675;28;20046;-59
2022/06/06 07:52:02;;;;;;;1.33;1.30;;;25.60;48.00;;;;;;5012377;28;20075;-58
2022/06/06 07:54:53;;;;;;;1.38;1.38;;;25.70;47.90;;;;;;5010822;28;20645;-59
2022/06/06 07:57:24;;;;;;;;;;;25.70;48.00;;;;;;5011758;28;20025;-58
2022/06/06 07:59:56;;;;;;;;;;;25.70;48.10;;;;;;5011531;28;19920;-58
2022/06/06 08:02:38;;;;;;;1.27;1.17;;;25.80;48.10;;;;;;5006585;28;19995;-58
2022/06/06 08:05:34;;;;;;;1.90;1.70;;;25.80;48.00;;;;;;5002332;28;20034;-58
2022/06/06 08:08:41;;;;;;;1.13;1.13;;;25.80;47.60;;;;;;5006706;28;20108;-59
2022/06/06 08:11:26;;;;;;;1.52;1.42;;;25.80;47.70;;;;;;5007968;28;20026;-58
2022/06/06 08:14:10;;;;;;;1.58;1.48;;;25.70;47.70;;;;;;5009309;28;20091;-58
2022/06/06 08:16:43;;;;;;;1.60;1.50;;;25.70;47.70;;;;;;5008502;28;20079;-58
2022/06/06 08:19:25;;;;;;;1.48;1.40;;;25.80;47.70;;;;;;5012580;28;20957;-58
2022/06/06 08:21:51;;;;;;;1.50;1.40;;;25.80;47.50;;;;;;5022294;28;20040;-58
2022/06/06 08:24:45;;;;;;;1.38;1.27;;;25.80;47.40;;;;;;5018766;28;20523;-58
2022/06/06 08:27:14;;;;;;;1.20;1.20;;;25.80;47.10;;;;;;5015141;28;20437;-58
2022/06/06 08:29:41;;;;;;;1.58;1.48;;;25.70;47.40;;;;;;5007730;28;20029;-58
2022/06/06 08:32:08;;;;;;;1.50;1.40;;;25.60;46.40;;;;;;5008593;28;20029;-59
2022/06/06 08:34:34;;;;;;;1.30;1.20;;;25.50;46.20;;;;;;5008111;28;20040;-59
2022/06/06 08:37:21;;;;;;;1.55;1.45;;;25.50;46.40;;;;;;5012801;28;20040;-59
2022/06/06 08:40:37;;;;;;;1.45;1.20;;;25.50;46.30;;;;;;5012487;28;20032;-59
2022/06/06 08:43:19;;;;;;;1.48;1.23;;;25.50;46.00;;;;;;5026620;28;21756;-58
2022/06/06 08:46:20;;;;;;;1.35;1.25;;;25.50;45.60;;;;;;5014976;28;20036;-59
2022/06/06 08:49:01;;;;;;;1.63;1.52;;;25.40;45.70;;;;;;5011362;28;20120;-59
2022/06/06 08:51:50;;;;;;;1.30;1.25;;;25.40;46.10;;;;;;5007883;28;20421;-59
2022/06/06 08:54:34;;;;;;;1.52;1.42;;;25.40;46.50;;;;;;5007887;28;20112;-60
2022/06/06 08:57:18;;;;;;;1.63;1.52;;;25.30;46.30;;;;;;5018942;28;20037;-60
2022/06/06 09:00:05;;;;;;;1.05;1.05;;;25.30;46.00;;;;;;5006001;28;20034;-59
2022/06/06 09:03:10;;;;;;;1.00;1.00;;;25.30;45.60;;;;;;5008276;28;20036;-58
2022/06/06 09:05:54;;;;;;;1.05;1.05;;;25.30;45.50;;;;;;5011338;28;20389;-57
2022/06/06 09:08:43;;;;;;;1.27;1.10;;;25.20;45.20;;;;;;5016663;28;20034;-58
2022/06/06 09:11:39;;;;;;;1.30;1.20;;;25.10;45.30;;;;;;5012348;28;20037;-58
2022/06/06 09:14:11;;;;;;;1.42;1.38;;;25.10;45.80;;;;;;5014336;28;20083;-58
2022/06/06 09:17:15;;;;;;;1.20;1.20;;;25.00;46.50;;;;;;5009031;28;20026;-58
2022/06/06 09:19:49;;;;;;;1.38;1.33;;;25.10;46.80;;;;;;5009075;28;20034;-58
2022/06/06 09:22:38;;;;;;;1.48;1.38;;;25.00;47.40;;;;;;5015557;28;20092;-58
2022/06/06 09:25:22;;;;;;;1.50;1.40;;;25.00;47.30;;;;;;5013569;28;20041;-58
2022/06/06 09:28:06;;;;;;;1.70;1.60;;;25.10;47.50;;;;;;5004991;28;20124;-58
2022/06/06 09:31:03;;;;;;;1.55;1.45;;;25.00;47.20;;;;;;5012932;28;20037;-59
2022/06/06 09:33:58;;;;;;;1.17;1.17;;;25.10;46.90;;;;;;5006476;28;20057;-58
2022/06/06 09:36:55;;;;;;;1.95;1.20;;;25.00;47.10;;;;;;5004972;28;20040;-57
2022/06/06 09:39:49;;;;;;;1.13;1.13;;;25.10;47.20;;;;;;5010210;28;20100;-59
2022/06/06 09:42:56;;;;;;;1.05;1.05;;;25.10;47.00;;;;;;5010864;28;20054;-58
2022/06/06 09:45:52;;;;;;;1.45;1.35;;;25.10;46.50;;;;;;5008035;28;20131;-58
2022/06/06 09:48:43;;;;;;;1.55;1.25;;;25.10;46.90;;;;;;5011148;28;20048;-58
2022/06/06 09:51:14;;;;;;;1.70;1.60;;;25.00;47.20;;;;;;5005671;28;20034;-58
2022/06/06 10:00:23;;;;;;;1.52;1.42;;;25.00;47.10;;;;;;5005638;28;20044;-60
2022/06/06 10:03:27;;;;;;;1.45;1.35;;;25.00;47.20;;;;;;5006483;28;20038;-60
2022/06/06 10:05:57;;;;;;;1.38;1.27;;;25.10;47.30;;;;;;5012491;28;20511;-60
2022/06/06 10:08:25;;;;;;;1.08;1.08;;;25.00;47.10;;;;;;5011005;28;20068;-60
2022/06/06 10:11:14;;;;;;;1.15;1.15;;;25.00;47.30;;;;;;5013345;28;20030;-59
2022/06/06 10:14:01;;;;;;;1.60;1.50;;;25.00;47.00;;;;;;5003406;28;20075;-59
2022/06/06 10:16:41;;;;;;;1.40;1.30;;;25.00;46.70;;;;;;5022210;28;20029;-59
2022/06/06 10:19:06;;;;;;;1.27;1.27;;;25.00;47.20;;;;;;5008952;28;20532;-59
2022/06/06 10:22:10;;;;;;;1.90;1.20;;;24.90;47.40;;;;;;5011210;28;20033;-59
2022/06/06 10:25:06;;;;;;;1.30;1.23;;;24.90;47.20;;;;;;5013509;28;20022;-59
2022/06/06 10:27:53;;;;;;;1.20;1.10;;;24.80;47.00;;;;;;5010276;28;20472;-59
2022/06/06 10:30:28;;;;;;;1.30;1.20;;;24.80;46.60;;;;;;5016210;28;20987;-59
2022/06/06 10:33:09;;;;;;;1.58;1.48;;;24.80;46.50;;;;;;5008095;28;20398;-59
2022/06/06 10:35:43;;;;;;;1.63;1.52;;;24.70;46.20;;;;;;5011197;28;20394;-60
2022/06/06 10:38:28;;;;;;;3.05;1.30;;;24.70;46.00;;;;;;5004213;28;20017;-59
2022/06/06 10:41:02;;;;;;;1.30;1.20;;;24.60;45.70;;;;;;5011905;28;20130;-60
2022/06/06 10:43:34;;;;;;;1.30;1.20;;;24.60;45.80;;;;;;5016108;28;20112;-59
2022/06/06 10:46:11;;;;;;;1.15;1.05;;;24.60;45.80;;;;;;5010036;28;20048;-60
2022/06/06 10:48:44;;;;;;;1.27;1.23;;;24.50;45.90;;;;;;5012051;28;20022;-60
2022/06/06 10:51:39;;;;;;;1.20;1.10;;;24.50;45.70;;;;;;5015137;28;20075;-60
2022/06/06 10:54:26;;;;;;;1.05;1.02;;;24.50;45.10;;;;;;5009821;28;20038;-60
2022/06/06 10:57:03;;;;;;;0.95;0.95;;;24.50;45.00;;;;;;5014494;28;20096;-59
2022/06/06 11:00:03;;;;;;;1.08;1.08;;;24.50;45.10;;;;;;5009518;28;20033;-60
2022/06/06 11:03:02;;;;;;;1.13;1.13;;;24.50;45.10;;;;;;5010150;28;20060;-59
2022/06/06 11:06:00;;;;;;;1.20;1.10;;;24.50;45.30;;;;;;5015033;28;20073;-58
2022/06/06 11:08:35;;;;;;;1.35;1.20;;;24.50;45.20;;;;;;5013552;28;20095;-58
2022/06/06 11:11:22;;;;;;;1.15;1.13;;;24.50;45.50;;;;;;5011030;28;20071;-59
2022/06/06 11:14:19;;;;;;;1.33;1.20;;;24.50;45.50;;;;;;5012907;28;20025;-60
2022/06/06 11:17:23;;;;;;;1.50;1.40;;;24.50;45.50;;;;;;5010773;28;22024;-59
2022/06/06 11:19:55;;;;;;;1.40;1.35;;;24.60;45.80;;;;;;5004345;28;20051;-60
2022/06/06 11:22:31;;;;;;;1.48;1.40;;;24.60;45.70;;;;;;5012138;28;20446;-60
2022/06/06 11:25:07;;;;;;;1.23;1.23;;;24.60;46.10;;;;;;5011659;28;20044;-58
2022/06/06 11:27:36;;;;;;;1.30;1.20;;;24.60;45.90;;;;;;5014121;28;20068;-60
2022/06/06 11:30:20;;;;;;;1.30;1.20;;;24.60;46.10;;;;;;5007004;28;20117;-59
2022/06/06 11:33:05;;;;;;;0.98;0.98;;;24.60;46.50;;;;;;5007386;28;20034;-59
2022/06/06 11:35:41;;;;;;;1.67;1.40;;;24.60;46.10;;;;;;5009804;28;20025;-60
2022/06/06 11:38:25;;;;;;;1.40;1.30;;;24.60;45.70;;;;;;5004485;28;20121;-60
2022/06/06 11:41:15;;;;;;;1.67;1.58;;;24.60;45.50;;;;;;4996660;28;20050;-60
2022/06/06 11:43:56;;;;;;;1.00;1.00;;;24.60;45.20;;;;;;5002025;28;20064;-60
2022/06/06 11:47:00;;;;;;;1.30;1.20;;;24.60;45.40;;;;;;5006508;28;20060;-60
2022/06/06 11:49:49;;;;;;;1.00;1.00;;;24.70;45.20;;;;;;5019568;28;20037;-60
2022/06/06 11:52:42;;;;;;;1.20;1.20;;;24.70;45.10;;;;;;5021165;28;20079;-60
2022/06/06 11:55:40;;;;;;;1.15;1.10;;;24.70;45.10;;;;;;5019865;28;20551;-60
2022/06/06 11:58:34;;;;;;;0.93;0.93;;;24.80;45.10;;;;;;5014220;28;20025;-60
2022/06/06 12:01:12;;;;;;;1.17;1.17;;;24.80;45.30;;;;;;5007692;28;20160;-60
2022/06/06 12:03:56;;;;;;;2.42;1.35;;;24.80;45.20;;;;;;5008157;28;20065;-60
2022/06/06 12:06:52;;;;;;;0.90;0.90;;;24.80;45.20;;;;;;5013703;28;20033;-59
2022/06/06 12:09:33;;;;;;;0.93;0.93;;;24.80;45.10;;;;;;5012789;28;20032;-60
2022/06/06 12:12:30;;;;;;;1.73;1.30;;;24.80;45.00;;;;;;5016965;28;20033;-61
2022/06/06 12:15:26;;;;;;;0.93;0.93;;;24.80;44.90;;;;;;5008667;28;20038;-60
2022/06/06 12:18:07;;;;;;;1.30;1.20;;;24.80;44.80;;;;;;5011940;28;20036;-60
2022/06/06 12:21:07;;;;;;;1.30;1.20;;;24.80;44.50;;;;;;5008622;28;23452;-60
2022/06/06 12:23:45;;;;;;;1.10;1.10;;;24.80;44.40;;;;;;5013058;28;20032;-60
2022/06/06 12:26:31;;;;;;;1.30;1.20;;;24.70;44.40;;;;;;5015946;28;20058;-59
2022/06/06 12:29:24;;;;;;;1.20;1.20;;;24.70;44.50;;;;;;5012306;28;20130;-60
2022/06/06 12:32:15;;;;;;;1.30;1.20;;;24.70;44.40;;;;;;5008684;28;20851;-60
2022/06/06 12:34:51;;;;;;;0.90;0.90;;;24.70;44.50;;;;;;5010315;28;20116;-61
2022/06/06 12:37:23;;;;;;;0.95;0.95;;;24.70;44.60;;;;;;5007389;28;20034;-60
2022/06/06 12:40:13;;;;;;;1.08;1.08;;;24.60;44.50;;;;;;5008808;28;20030;-60
2022/06/06 12:42:48;;;;;;;1.92;1.73;;;24.60;44.30;;;;;;5025106;28;20049;-60
2022/06/06 12:45:21;;;;;;;1.38;1.27;;;24.60;44.50;;;;;;5010707;28;20461;-59
2022/06/06 12:48:28;;;;;;;1.05;1.02;;;24.70;44.60;;;;;;5018292;28;20034;-60
2022/06/06 12:51:25;;;;;;;1.40;1.30;;;24.60;44.50;;;;;;5005184;28;20029;-60
2022/06/06 12:54:00;;;;;;;1.23;1.13;;;24.60;44.40;;;;;;5011387;28;20067;-60
2022/06/06 12:56:48;;;;;;;1.30;1.23;;;24.70;44.60;;;;;;5013857;28;20029;-60
2022/06/06 12:59:26;;;;;;;1.27;1.17;;;24.60;44.70;;;;;;5013195;28;20037;-60
2022/06/06 13:02:10;;;;;;;1.23;1.13;;;24.60;44.80;;;;;;5012383;28;20494;-60
2022/06/06 13:04:45;;;;;;;1.10;1.00;;;24.60;44.90;;;;;;5016008;28;20439;-60
2022/06/06 13:07:23;;;;;;;1.10;1.00;;;24.60;44.80;;;;;;5016396;28;20132;-60
2022/06/06 13:10:19;;;;;;;1.25;1.10;;;24.60;44.90;;;;;;5009713;28;20025;-60
2022/06/06 13:13:25;;;;;;;1.15;1.15;;;24.60;45.20;;;;;;5014874;28;20978;-60
2022/06/06 13:16:32;;;;;;;1.65;1.13;;;24.70;45.50;;;;;;5005213;28;20029;-59
2022/06/06 13:19:39;;;;;;;1.30;1.20;;;24.70;45.90;;;;;;4994660;28;20040;-59
2022/06/06 13:22:28;;;;;;;1.27;1.17;;;24.70;46.50;;;;;;5005213;28;20139;-60
2022/06/06 13:25:22;;;;;;;0.95;0.95;;;24.70;46.20;;;;;;5010748;28;20045;-60
2022/06/06 13:27:56;;;;;;;1.80;1.70;;;24.60;46.20;;;;;;5007956;28;20060;-60
2022/06/06 13:30:30;;;;;;;1.38;1.27;;;24.60;46.10;;;;;;5009717;28;20045;-60
2022/06/06 13:33:17;;;;;;;1.52;1.42;;;24.60;45.90;;;;;;5016097;28;20026;-59
2022/06/06 13:35:55;;;;;;;2.25;1.40;;;24.60;45.80;;;;;;5001996;28;21120;-60
2022/06/06 13:38:57;;;;;;;1.25;1.15;;;24.60;45.60;;;;;;5009487;28;20523;-60
2022/06/06 13:42:04;;;;;;;2.15;1.00;;;24.60;45.70;;;;;;5003468;28;20060;-60
2022/06/06 13:44:45;;;;;;;1.38;1.27;;;24.60;46.40;;;;;;5003746;28;20713;-60
2022/06/06 13:47:26;;;;;;;0.90;0.90;;;24.50;45.80;;;;;;4998028;28;20029;-60
2022/06/06 13:50:01;;;;;;;2.10;1.02;;;24.50;46.00;;;;;;5001581;28;20445;-60
2022/06/06 13:52:34;;;;;;;1.10;1.00;;;24.50;46.00;;;;;;5013556;28;20025;-60
2022/06/06 13:55:23;;;;;;;1.42;1.30;;;24.50;45.90;;;;;;5006070;28;20116;-60
2022/06/06 13:57:58;;;;;;;1.20;1.10;;;24.50;46.20;;;;;;5005386;28;20065;-59
2022/06/06 14:00:34;;;;;;;0.80;0.80;;;24.50;46.20;;;;;;5014630;28;20029;-60
2022/06/06 14:03:28;;;;;;;1.70;1.60;;;24.50;46.00;;;;;;5008429;28;20060;-60
2022/06/06 14:06:26;;;;;;;1.45;1.30;;;24.50;45.90;;;;;;5005661;28;20021;-60
2022/06/06 14:08:53;;;;;;;1.40;1.30;;;24.50;46.00;;;;;;5002104;28;20420;-59
2022/06/06 14:11:25;;;;;;;1.17;1.15;;;24.40;45.90;;;;;;5003185;28;20036;-59
2022/06/06 14:13:59;;;;;;;1.33;1.33;;;24.40;46.00;;;;;;5001535;28;20540;-60
2022/06/06 14:16:36;;;;;;;1.05;1.05;;;24.40;46.00;;;;;;5005197;28;20260;-60
2022/06/06 14:19:48;;;;;;;1.38;1.27;;;24.40;46.30;;;;;;5013050;28;20040;-60
2022/06/06 14:22:30;;;;;;;1.30;1.20;;;24.40;46.10;;;;;;5012131;28;20065;-60
2022/06/06 14:24:58;;;;;;;1.10;1.10;;;24.30;46.40;;;;;;5001473;28;20494;-60
2022/06/06 14:27:24;;;;;;;1.30;1.30;;;24.30;46.70;;;;;;5004834;28;20029;-60
2022/06/06 14:29:50;;;;;;;1.20;1.10;;;24.30;46.70;;;;;;5003962;28;20030;-60
2022/06/06 14:32:47;;;;;;;1.63;1.50;;;24.30;46.50;;;;;;5007071;28;20036;-60
2022/06/06 14:35:16;;;;;;;1.27;1.20;;;24.30;46.40;;;;;;5010091;28;20143;-59
2022/06/06 14:37:44;;;;;;;1.95;1.70;;;24.30;46.40;;;;;;5005751;28;20034;-59
2022/06/06 14:40:13;;;;;;;1.65;1.55;;;24.30;46.50;;;;;;5009639;28;20029;-60
2022/06/06 14:42:44;;;;;;;1.60;1.38;;;24.20;46.40;;;;;;5009568;28;20060;-60
2022/06/06 14:45:25;;;;;;;1.58;1.30;;;24.20;46.10;;;;;;5018112;28;20034;-60
2022/06/06 14:48:12;;;;;;;1.33;1.20;;;24.20;46.10;;;;;;5002437;28;20049;-59
2022/06/06 14:50:56;;;;;;;1.05;1.05;;;24.20;46.70;;;;;;5010169;28;20056;-59
2022/06/06 14:54:02;;;;;;;1.48;1.30;;;24.20;48.00;;;;;;5010843;28;20046;-59
2022/06/06 14:56:42;;;;;;;2.15;1.95;;;24.20;48.50;;;;;;5006502;28;20034;-60
2022/06/06 14:59:14;;;;;;;1.55;1.45;;;24.20;48.80;;;;;;5014501;28;20025;-60
2022/06/06 15:01:41;;;;;;;1.48;1.38;;;24.10;48.70;;;;;;5005162;28;20130;-60
2022/06/06 15:04:36;;;;;;;1.42;1.08;;;24.10;48.60;;;;;;5004486;28;20038;-59
2022/06/06 15:07:02;;;;;;;1.30;1.20;;;24.10;48.00;;;;;;5007116;28;20048;-60
2022/06/06 15:09:37;;;;;;;1.40;1.30;;;24.10;47.80;;;;;;5007513;28;20048;-59
2022/06/06 15:12:04;;;;;;;1.10;1.10;;;24.10;47.60;;;;;;5004845;28;20025;-60
2022/06/06 15:14:35;;;;;;;1.13;1.02;;;24.20;47.80;;;;;;5006787;28;20022;-60
2022/06/06 15:17:10;;;;;;;1.30;1.25;;;24.10;48.10;;;;;;5011977;28;20029;-59
2022/06/06 15:19:48;;;;;;;1.10;0.95;;;24.10;48.30;;;;;;5014412;28;20477;-60
2022/06/06 15:22:23;;;;;;;1.60;1.50;;;24.10;48.10;;;;;;5009982;28;20029;-60
2022/06/06 15:24:49;;;;;;;2.95;2.10;;;24.10;48.00;;;;;;5010717;28;20041;-59
2022/06/06 15:27:40;;;;;;;2.28;2.08;;;24.10;47.90;;;;;;5011229;28;20041;-59
2022/06/06 15:30:29;;;;;;;1.90;1.80;;;24.10;48.00;;;;;;5001698;28;20758;-59
2022/06/06 15:33:15;;;;;;;1.75;1.65;;;24.10;48.20;;;;;;5005357;28;22639;-59
2022/06/06 15:36:05;;;;;;;1.33;1.23;;;24.10;48.30;;;;;;5003055;28;20034;-59
2022/06/06 15:38:40;;;;;;;1.40;1.30;;;24.10;48.30;;;;;;5010298;28;20684;-60
2022/06/06 15:41:14;;;;;;;1.30;1.27;;;24.10;48.70;;;;;;5019493;28;20161;-59
2022/06/06 15:43:58;;;;;;;1.55;1.30;;;24.10;49.20;;;;;;5011758;28;20041;-60
2022/06/06 15:46:54;;;;;;;1.05;1.05;;;24.10;49.90;;;;;;5012864;28;20071;-59
2022/06/06 15:49:51;;;;;;;1.55;1.45;;;24.20;50.50;;;;;;5015904;28;20045;-60
2022/06/06 15:52:36;;;;;;;1.40;1.30;;;24.10;50.90;;;;;;5015416;28;20160;-60
2022/06/06 15:55:10;;;;;;;1.60;1.50;;;24.10;51.00;;;;;;5018469;28;20103;-59
2022/06/06 15:57:57;;;;;;;1.63;1.52;;;24.10;51.10;;;;;;5014972;28;20436;-60
2022/06/06 16:00:31;;;;;;;1.63;1.52;;;24.10;51.30;;;;;;5015527;28;20044;-59
2022/06/06 16:03:11;;;;;;;2.65;1.38;;;24.10;50.90;;;;;;5014422;28;20025;-61
2022/06/06 16:05:41;;;;;;;1.50;1.30;;;24.20;51.20;;;;;;5019979;28;20032;-60
2022/06/06 16:08:19;;;;;;;1.48;1.38;;;24.20;51.20;;;;;;5011390;28;20043;-60
2022/06/06 16:11:03;;;;;;;3.22;1.67;;;24.20;51.30;;;;;;5014180;28;20449;-60
2022/06/06 16:13:48;;;;;;;1.50;1.40;;;24.20;51.10;;;;;;5017048;28;20034;-60
2022/06/06 16:16:39;;;;;;;1.45;1.35;;;24.20;51.10;;;;;;5019422;28;20032;-60
2022/06/06 16:19:28;;;;;;;1.35;1.25;;;24.20;50.60;;;;;;5017019;28;20089;-59
2022/06/06 16:22:01;;;;;;;1.15;1.15;;;24.20;50.20;;;;;;5012849;28;20106;-59
2022/06/06 16:24:54;;;;;;;1.30;1.20;;;24.20;50.20;;;;;;5016571;28;20057;-59
2022/06/06 16:27:32;;;;;;;2.28;1.35;;;24.10;50.00;;;;;;5016045;28;20482;-60
2022/06/06 16:30:06;;;;;;;1.70;1.60;;;24.10;49.80;;;;;;5011426;28;20079;-60
2022/06/06 16:33:14;;;;;;;1.75;1.65;;;24.10;49.30;;;;;;5019254;28;20022;-60
2022/06/06 16:36:06;;;;;;;1.70;1.60;;;24.00;49.10;;;;;;5023403;28;20452;-59
2022/06/06 16:38:44;;;;;;;1.85;1.75;;;24.00;49.10;;;;;;5020171;28;20098;-59
2022/06/06 16:41:13;;;;;;;2.50;1.70;;;24.00;49.10;;;;;;5029217;28;20044;-59
2022/06/06 16:49:50;;;;;;;3.72;1.60;;;23.90;49.40;;;;;;5032632;28;20056;-60
2022/06/06 16:52:40;;;;;;;1.25;1.15;;;23.90;49.60;;;;;;5027336;28;20105;-59
2022/06/06 16:55:36;;;;;;;1.13;1.13;;;23.80;50.40;;;;;;5022997;28;20105;-60
2022/06/06 16:58:14;;;;;;;1.20;1.20;;;23.80;49.80;;;;;;5028626;28;20030;-59
2022/06/06 17:00:53;;;;;;;1.52;1.42;;;23.80;50.00;;;;;;5033612;28;20033;-59
2022/06/06 17:03:33;;;;;;;1.40;1.27;;;23.80;49.90;;;;;;5032102;28;20021;-59
2022/06/06 17:09:18;;;;;;;6.35;3.50;;;23.70;49.70;;;;;;5023219;28;20040;-59
2022/06/06 17:12:03;;;;;;;2.75;2.10;;;23.70;50.00;;;;;;5023338;28;20380;-60
2022/06/06 17:14:34;;;;;;;2.00;1.80;;;23.60;50.10;;;;;;5032301;28;20021;-59
2022/06/06 17:17:20;;;;;;;1.95;1.70;;;23.60;50.00;;;;;;5032172;28;20103;-60
2022/06/06 17:20:07;;;;;;;1.55;1.45;;;23.60;50.20;;;;;;5030194;28;20026;-60
2022/06/06 17:22:34;;;;;;;1.63;1.52;;;23.60;50.60;;;;;;5032766;28;20614;-59
2022/06/06 17:25:05;;;;;;;2.15;1.67;;;23.60;50.80;;;;;;5033210;28;20048;-59
2022/06/06 17:27:55;;;;;;;1.55;1.45;;;23.50;51.00;;;;;;5022614;28;20486;-59
2022/06/06 17:30:34;;;;;;;1.63;1.35;;;23.50;51.40;;;;;;5014990;28;20025;-60
2022/06/06 17:33:17;;;;;;;1.77;1.60;;;23.50;51.50;;;;;;5030940;28;20018;-59
2022/06/06 17:36:09;;;;;;;1.50;1.40;;;23.40;51.60;;;;;;5031807;28;20057;-60
2022/06/06 17:38:47;;;;;;;1.52;1.42;;;23.40;51.80;;;;;;5021163;28;20021;-59
2022/06/06 17:41:18;;;;;;;1.73;1.63;;;23.40;51.70;;;;;;5031220;28;20053;-60
2022/06/06 17:44:05;;;;;;;1.80;1.70;;;23.30;51.60;;;;;;5030988;28;20049;-60
2022/06/06 17:46:45;;;;;;;2.30;2.10;;;23.30;51.70;;;;;;5032170;28;20061;-59
2022/06/06 17:49:35;;;;;;;2.47;2.27;;;23.30;51.60;;;;;;5027221;28;20584;-60
2022/06/06 17:52:43;;;;;;;2.38;2.17;;;23.20;51.70;;;;;;5034409;28;20497;-59
2022/06/06 17:55:33;;;;;;;1.88;1.77;;;23.20;51.70;;;;;;5034271;28;20096;-59
2022/06/06 17:58:15;;;;;;;1.90;1.80;;;23.10;51.80;;;;;;5034403;28;20370;-59
2022/06/06 18:00:50;;;;;;;2.10;1.90;;;23.10;52.30;;;;;;5031831;28;20040;-59
2022/06/06 18:03:48;;;;;;;2.38;1.73;;;23.10;52.40;;;;;;5030999;28;20532;-60
2022/06/06 18:06:37;;;;;;;1.95;1.70;;;23.00;52.60;;;;;;5030046;28;20108;-60
2022/06/06 18:09:31;;;;;;;1.60;1.50;;;23.00;52.80;;;;;;5030860;28;20033;-60
2022/06/06 18:12:36;;;;;;;1.45;1.35;;;23.00;52.70;;;;;;5033883;28;20497;-60
2022/06/06 18:15:41;;;;;;;1.85;1.75;;;22.90;52.90;;;;;;5033945;28;20030;-60
2022/06/06 18:18:14;;;;;;;1.50;1.40;;;22.90;53.00;;;;;;5021920;28;20021;-59
2022/06/06 18:20:43;;;;;;;1.85;1.67;;;22.80;53.30;;;;;;5033694;28;20100;-59
2022/06/06 18:23:23;;;;;;;1.70;1.52;;;22.80;53.70;;;;;;5028210;28;20030;-60
2022/06/06 18:25:57;;;;;;;2.13;1.90;;;22.80;54.10;;;;;;5014779;28;20033;-59
2022/06/06 18:28:51;;;;;;;1.85;1.75;;;22.80;54.00;;;;;;5022007;28;20029;-60
2022/06/06 18:31:42;;;;;;;2.45;2.05;;;22.70;53.40;;;;;;5032143;28;20044;-60
2022/06/06 18:34:34;;;;;;;2.97;2.35;;;22.70;52.90;;;;;;5018270;28;20054;-60
2022/06/06 18:37:05;;;;;;;1.85;1.75;;;22.70;52.50;;;;;;5019853;28;20018;-59
2022/06/06 18:39:46;;;;;;;2.20;2.00;;;22.70;52.30;;;;;;5021240;28;20025;-59
2022/06/06 18:42:29;;;;;;;2.28;2.05;;;22.60;52.40;;;;;;5032356;28;20056;-59
2022/06/06 18:45:03;;;;;;;1.65;1.45;;;22.60;52.40;;;;;;5031122;28;20541;-59
2022/06/06 18:47:38;;;;;;;2.17;1.58;;;22.60;52.80;;;;;;5033140;28;20096;-60
2022/06/06 18:50:06;;;;;;;1.50;1.45;;;22.60;53.00;;;;;;5032293;28;20495;-59
2022/06/06 18:52:37;;;;;;;3.95;1.75;;;22.60;53.10;;;;;;5034273;28;20033;-60
2022/06/06 18:55:05;;;;;;;2.42;1.60;;;22.60;53.00;;;;;;5039620;28;20029;-60
2022/06/06 18:57:32;;;;;;;1.60;1.50;;;22.50;52.90;;;;;;5033168;28;20037;-59
2022/06/06 19:00:14;;;;;;;1.98;1.77;;;22.50;52.70;;;;;;5032636;28;20496;-59
2022/06/06 19:02:43;;;;;;;2.17;1.98;;;22.50;52.50;;;;;;5030506;28;20151;-58
2022/06/06 19:05:27;;;;;;;2.58;2.20;;;22.50;52.60;;;;;;5025305;28;20032;-58
2022/06/06 19:08:22;;;;;;;3.35;2.67;;;22.50;53.20;;;;;;5020763;28;20030;-59
2022/06/06 19:11:06;;;;;;;2.88;2.33;;;22.50;54.10;;;;;;5032196;28;20022;-59